createdAt,value
2022-09-23T00:00:15.268Z,9.96
2022-09-23T00:02:55.444Z,9.90
2022-09-23T00:05:42.237Z,9.91
2022-09-23T00:08:22.352Z,9.93
2022-09-23T00:11:14.204Z,9.88
2022-09-23T00:14:03.198Z,9.91
2022-09-23T00:16:50.322Z,9.99
2022-09-23T00:19:37.184Z,10.00
2022-09-23T00:22:17.567Z,9.95
2022-09-23T00:25:04.285Z,9.97
2022-09-23T00:27:58.173Z,9.93
2022-09-23T00:30:48.337Z,9.91
2022-09-23T00:33:29.901Z,9.84
2022-09-23T00:36:18.188Z,9.69
2022-09-23T00:39:05.273Z,9.56
2022-09-23T00:41:45.613Z,9.52
2022-09-23T00:44:55.211Z,9.45
2022-09-23T00:47:50.164Z,9.51
2022-09-23T00:50:37.208Z,9.54
2022-09-23T00:53:22.627Z,9.39
2022-09-23T00:56:17.183Z,9.41
2022-09-23T00:59:11.149Z,9.50
2022-09-23T01:02:01.232Z,9.52
2022-09-23T01:04:42.265Z,9.69
2022-09-23T01:07:29.200Z,9.80
2022-09-23T01:10:16.166Z,9.97
2022-09-23T01:13:09.306Z,9.99
2022-09-23T01:15:56.157Z,10.04
2022-09-23T01:19:17.129Z,10.16
2022-09-23T01:22:27.138Z,10.20
2022-09-23T01:25:51.153Z,10.23
2022-09-23T01:28:38.236Z,10.31
2022-09-23T01:31:45.150Z,10.41
2022-09-23T01:34:36.717Z,10.48
2022-09-23T01:37:37.085Z,10.52
2022-09-23T01:40:49.174Z,10.60
2022-09-23T01:43:47.948Z,10.60
2022-09-23T01:46:44.090Z,10.67
2022-09-23T01:49:43.161Z,10.76
2022-09-23T01:53:03.084Z,10.77
2022-09-23T01:55:50.117Z,10.62
2022-09-23T01:58:44.106Z,10.55
2022-09-23T02:01:35.246Z,10.62
2022-09-23T02:04:45.105Z,10.58
2022-09-23T02:08:12.113Z,10.57
2022-09-23T02:11:16.044Z,10.53
2022-09-23T02:14:22.124Z,10.53
2022-09-23T02:17:08.544Z,10.48
2022-09-23T02:20:04.069Z,10.40
2022-09-23T02:28:35.087Z,10.12
2022-09-23T02:31:37.084Z,10.10
2022-09-23T02:34:23.252Z,10.00
2022-09-23T02:37:13.067Z,9.98
2022-09-23T02:40:04.254Z,9.98
2022-09-23T02:43:24.065Z,10.01
2022-09-23T02:46:04.158Z,9.98
2022-09-23T02:49:07.055Z,9.93
2022-09-23T02:51:54.038Z,9.97
2022-09-23T02:54:35.439Z,9.97
2022-09-23T02:57:22.000Z,10.00
2022-09-23T03:00:02.506Z,9.88
2022-09-23T03:03:10.038Z,9.97
2022-09-23T03:06:01.975Z,10.01
2022-09-23T03:26:01.584Z,9.80
2022-09-23T03:28:51.581Z,9.94
2022-09-23T03:31:38.642Z,10.04
2022-09-23T03:34:31.581Z,10.14
2022-09-23T03:37:22.734Z,10.16
2022-09-23T03:40:30.641Z,10.24
2022-09-23T03:43:12.775Z,10.23
2022-09-23T03:46:04.608Z,10.30
2022-09-23T03:48:52.554Z,10.24
2022-09-23T03:51:32.927Z,10.28
2022-09-23T03:54:19.550Z,10.30
2022-09-23T03:57:07.547Z,10.40
2022-09-23T03:59:47.631Z,10.39
2022-09-23T04:02:34.612Z,10.35
2022-09-23T04:05:16.626Z,10.24
2022-09-23T04:08:03.541Z,10.14
2022-09-23T04:10:55.048Z,10.15
2022-09-23T04:13:41.510Z,10.14
2022-09-23T04:16:28.569Z,10.13
2022-09-23T04:19:13.052Z,10.25
2022-09-23T04:21:59.486Z,10.23
2022-09-23T04:24:53.498Z,10.25
2022-09-23T04:27:40.514Z,10.46
2022-09-23T04:30:20.694Z,10.78
2022-09-23T04:33:07.486Z,11.22
2022-09-23T04:35:48.593Z,11.36
2022-09-23T04:38:35.449Z,11.53
2022-09-23T04:41:16.622Z,11.45
2022-09-23T04:44:04.497Z,11.23
2022-09-23T04:46:47.595Z,11.08
2022-09-23T04:49:34.440Z,10.82
2022-09-23T04:52:21.506Z,10.73
2022-09-23T04:55:11.175Z,10.60
2022-09-23T04:57:58.467Z,10.62
2022-09-23T05:00:38.953Z,10.69
2022-09-23T05:03:25.446Z,10.98
2022-09-23T05:06:06.236Z,12.16
2022-09-23T05:08:55.440Z,12.90
2022-09-23T05:11:42.410Z,14.39
2022-09-23T05:14:29.469Z,14.64
2022-09-23T05:17:16.436Z,15.84
2022-09-23T05:19:57.962Z,16.72
2022-09-23T05:22:44.456Z,17.36
2022-09-23T05:25:38.566Z,17.68
2022-09-23T05:28:20.153Z,17.17
2022-09-23T05:31:06.466Z,17.56
2022-09-23T05:33:59.451Z,18.53
2022-09-23T05:36:42.529Z,18.21
2022-09-23T05:39:29.416Z,17.48
2022-09-23T05:42:16.388Z,16.98
2022-09-23T05:44:56.803Z,17.01
2022-09-23T05:47:43.406Z,16.38
2022-09-23T05:50:30.368Z,17.12
2022-09-23T05:53:10.505Z,18.69
2022-09-23T05:55:58.384Z,17.05
2022-09-23T05:58:38.521Z,15.96
2022-09-23T06:01:28.488Z,16.14
2022-09-23T06:04:17.377Z,15.39
2022-09-23T06:07:04.359Z,15.01
2022-09-23T06:09:44.499Z,14.62
2022-09-23T06:12:32.376Z,14.04
2022-09-23T06:15:20.360Z,14.11
2022-09-23T06:18:01.185Z,14.02
2022-09-23T06:20:48.388Z,14.04
2022-09-23T06:23:29.541Z,14.10
2022-09-23T06:26:18.375Z,14.54
2022-09-23T06:28:58.721Z,14.68
2022-09-23T06:31:47.498Z,15.14
2022-09-23T06:34:27.856Z,14.86
2022-09-23T06:37:19.912Z,15.05
2022-09-23T06:40:07.369Z,15.64
2022-09-23T06:42:55.357Z,17.29
2022-09-23T06:45:35.751Z,21.38
2022-09-23T06:48:22.351Z,23.76
2022-09-23T06:51:05.402Z,24.82
2022-09-23T06:53:52.297Z,27.41
2022-09-23T06:56:38.527Z,28.61
2022-09-23T06:59:26.350Z,27.79
2022-09-23T07:02:13.478Z,28.02
2022-09-23T07:04:53.458Z,26.74
2022-09-23T07:07:42.316Z,26.59
2022-09-23T07:10:22.423Z,26.45
2022-09-23T07:13:16.036Z,28.03
2022-09-23T07:16:02.915Z,28.03
2022-09-23T07:18:49.328Z,27.49
2022-09-23T07:21:36.255Z,28.19
2022-09-23T07:24:30.264Z,28.59
2022-09-23T07:27:10.666Z,28.24
2022-09-23T07:29:58.292Z,28.44
2022-09-23T07:32:49.001Z,27.88
2022-09-23T07:35:29.342Z,29.98
2022-09-23T07:38:18.278Z,31.29
2022-09-23T07:41:05.265Z,29.51
2022-09-23T07:43:46.401Z,28.41
2022-09-23T07:46:33.325Z,28.71
2022-09-23T07:49:13.987Z,29.62
2022-09-23T07:52:00.273Z,29.45
2022-09-23T07:54:47.281Z,28.56
2022-09-23T07:57:34.238Z,29.31
2022-09-23T08:00:21.244Z,29.97
2022-09-23T08:03:01.436Z,29.26
2022-09-23T08:05:48.251Z,29.65
2022-09-23T08:08:29.021Z,30.98
2022-09-23T08:11:19.212Z,29.79
2022-09-23T08:14:00.317Z,30.19
2022-09-23T08:16:48.336Z,31.27
2022-09-23T08:19:28.313Z,31.20
2022-09-23T08:22:15.266Z,31.91
2022-09-23T08:25:02.217Z,31.47
2022-09-23T08:27:49.243Z,31.81
2022-09-23T08:30:32.321Z,31.06
2022-09-23T08:33:23.552Z,31.52
2022-09-23T08:36:17.298Z,32.49
2022-09-23T08:39:04.491Z,32.93
2022-09-23T08:41:59.118Z,32.51
2022-09-23T08:45:12.218Z,32.20
2022-09-23T08:48:12.162Z,32.85
2022-09-23T08:51:06.212Z,32.59
2022-09-23T08:53:54.269Z,32.58
2022-09-23T08:56:44.303Z,31.23
2022-09-23T08:59:43.226Z,33.90
2022-09-23T09:02:25.028Z,34.96
2022-09-23T09:05:17.246Z,35.03
2022-09-23T09:08:00.525Z,34.87
2022-09-23T09:10:54.182Z,36.02
2022-09-23T09:13:43.439Z,33.00
2022-09-23T09:16:59.659Z,32.68
2022-09-23T09:19:54.280Z,34.25
2022-09-23T09:23:02.201Z,35.14
2022-09-23T09:26:06.199Z,34.84
2022-09-23T09:29:11.482Z,35.23
2022-09-23T09:32:06.119Z,34.07
2022-09-23T09:34:54.722Z,27.40
2022-09-23T09:37:53.568Z,25.54
2022-09-23T09:40:35.287Z,24.30
2022-09-23T09:43:23.135Z,25.87
2022-09-23T09:46:43.213Z,24.86
2022-09-23T09:49:43.132Z,26.26
2022-09-23T09:52:33.156Z,25.23
2022-09-23T09:55:26.091Z,22.63
2022-09-23T09:58:13.098Z,21.29
2022-09-23T10:01:00.185Z,20.50
2022-09-23T10:03:50.826Z,19.56
2022-09-23T10:06:35.776Z,19.26
2022-09-23T10:09:26.066Z,18.74
2022-09-23T10:12:31.054Z,18.51
2022-09-23T10:15:33.076Z,18.36
2022-09-23T10:18:40.085Z,18.25
2022-09-23T10:21:27.741Z,22.18
2022-09-23T10:24:18.099Z,21.53
2022-09-23T10:27:12.093Z,21.79
2022-09-23T10:30:04.009Z,21.83
2022-09-23T10:32:52.033Z,20.16
2022-09-23T10:35:42.071Z,19.80
2022-09-23T10:38:22.485Z,19.22
2022-09-23T10:41:28.040Z,18.59
2022-09-23T10:44:37.795Z,19.16
2022-09-23T10:47:48.030Z,22.21
2022-09-23T10:50:55.113Z,24.60
2022-09-23T10:53:49.052Z,25.62
2022-09-23T10:56:36.184Z,24.64
2022-09-23T11:00:05.053Z,26.07
2022-09-23T11:03:09.026Z,25.98
2022-09-23T11:06:05.024Z,27.14
2022-09-23T11:09:03.107Z,25.02
2022-09-23T11:12:28.052Z,21.37
2022-09-23T11:15:39.031Z,19.35
2022-09-23T11:18:37.176Z,19.31
2022-09-23T11:21:30.016Z,18.00
2022-09-23T11:24:59.048Z,18.90
2022-09-23T11:27:45.535Z,21.85
2022-09-23T11:30:33.074Z,21.52
2022-09-23T11:33:30.978Z,21.30
2022-09-23T11:36:53.008Z,20.21
2022-09-23T11:39:42.646Z,19.10
2022-09-23T11:42:38.989Z,18.68
2022-09-23T11:45:25.566Z,18.28
2022-09-23T11:48:17.957Z,18.35
2022-09-23T11:51:20.581Z,18.13
2022-09-23T11:54:20.729Z,17.75
2022-09-23T11:57:12.980Z,17.61
2022-09-23T11:59:59.121Z,17.46
2022-09-23T12:03:02.970Z,17.13
2022-09-23T12:06:15.166Z,17.20
2022-09-23T12:09:07.976Z,17.19
2022-09-23T12:11:57.098Z,17.15
2022-09-23T12:15:21.165Z,17.28
2022-09-23T12:18:23.157Z,15.42
2022-09-23T12:21:22.148Z,14.30
2022-09-23T12:24:47.062Z,13.40
2022-09-23T12:27:36.922Z,13.09
2022-09-23T12:30:37.045Z,12.85
2022-09-23T12:33:30.954Z,12.54
2022-09-23T12:36:19.044Z,12.73
2022-09-23T12:39:13.971Z,13.01
2022-09-23T12:41:54.356Z,13.38
2022-09-23T12:44:46.949Z,13.81
2022-09-23T12:47:34.963Z,13.94
2022-09-23T12:50:47.270Z,13.61
2022-09-23T12:53:45.957Z,13.26
2022-09-23T12:56:57.993Z,13.12
2022-09-23T12:59:59.206Z,13.01
2022-09-23T13:03:26.952Z,12.83
2022-09-23T13:06:32.894Z,12.75
2022-09-23T13:09:25.899Z,12.78
2022-09-23T13:12:10.506Z,12.87
2022-09-23T13:15:00.944Z,13.02
2022-09-23T13:17:45.074Z,13.13
2022-09-23T13:20:44.910Z,13.29
2022-09-23T13:23:44.889Z,13.70
2022-09-23T13:26:31.906Z,13.94
2022-09-23T13:29:19.885Z,14.31
2022-09-23T13:32:08.931Z,14.43
2022-09-23T13:34:50.007Z,14.51
2022-09-23T13:37:56.878Z,15.06
2022-09-23T13:40:37.021Z,15.32
2022-09-23T13:43:38.946Z,15.44
2022-09-23T13:46:32.120Z,15.57
2022-09-23T13:49:30.862Z,15.44
2022-09-23T13:52:10.964Z,15.32
2022-09-23T13:54:57.859Z,15.19
2022-09-23T13:57:47.850Z,15.06
2022-09-23T14:00:41.867Z,15.00
2022-09-23T14:03:37.134Z,14.98
2022-09-23T14:06:23.851Z,15.05
2022-09-23T14:09:06.974Z,15.17
2022-09-23T14:11:53.801Z,15.26
2022-09-23T14:14:42.981Z,15.28
2022-09-23T14:17:29.825Z,15.18
2022-09-23T14:20:16.870Z,15.23
2022-09-23T14:23:10.733Z,15.28
2022-09-23T14:25:58.804Z,15.18
2022-09-23T14:28:45.808Z,15.07
2022-09-23T14:31:32.889Z,14.91
2022-09-23T14:34:47.883Z,14.70
2022-09-23T14:37:49.475Z,14.64
2022-09-23T14:40:45.850Z,14.72
2022-09-23T14:43:33.362Z,14.84
2022-09-23T14:46:26.813Z,14.86
2022-09-23T14:49:18.892Z,14.84
2022-09-23T14:52:13.807Z,14.92
2022-09-23T14:54:56.896Z,15.02
2022-09-23T14:57:44.762Z,14.89
2022-09-23T15:00:27.061Z,14.88
2022-09-23T15:03:22.866Z,14.95
2022-09-23T15:06:08.865Z,15.05
2022-09-23T15:08:57.803Z,14.99
2022-09-23T15:27:55.208Z,14.15
2022-09-23T15:30:36.906Z,14.23
2022-09-23T15:33:33.195Z,14.30
2022-09-23T15:36:23.131Z,14.36
2022-09-23T15:39:18.161Z,14.38
2022-09-23T15:42:06.185Z,14.37
2022-09-23T15:44:46.316Z,14.47
2022-09-23T15:47:33.138Z,14.49
2022-09-23T15:50:13.268Z,14.42
2022-09-23T15:53:00.140Z,14.45
2022-09-23T15:55:47.172Z,14.36
2022-09-23T15:58:34.279Z,14.36
2022-09-23T16:01:38.222Z,14.14
2022-09-23T16:04:18.601Z,14.09
2022-09-23T16:07:06.100Z,14.01
2022-09-23T16:09:46.671Z,13.98
2022-09-23T16:12:33.190Z,13.87
2022-09-23T16:15:17.046Z,13.72
2022-09-23T16:18:04.140Z,13.61
2022-09-23T16:20:46.425Z,13.52
2022-09-23T16:23:41.147Z,13.42
2022-09-23T16:26:32.042Z,13.27
2022-09-23T16:29:19.137Z,13.00
2022-09-23T16:32:01.094Z,12.93
2022-09-23T16:34:48.115Z,12.90
2022-09-23T16:37:28.531Z,12.77
2022-09-23T16:40:16.168Z,12.74
2022-09-23T16:42:58.427Z,12.66
2022-09-23T16:45:45.215Z,12.62
2022-09-23T16:48:25.734Z,12.52
2022-09-23T16:51:17.120Z,12.46
2022-09-23T16:53:59.447Z,12.43
2022-09-23T16:56:46.073Z,12.40
2022-09-23T16:59:53.113Z,12.37
2022-09-23T17:02:52.030Z,12.34
2022-09-23T17:05:39.044Z,12.34
2022-09-23T17:08:27.080Z,12.28
2022-09-23T17:11:08.915Z,12.24
2022-09-23T17:13:57.084Z,12.20
2022-09-23T17:16:44.160Z,12.02
2022-09-23T17:19:24.187Z,11.93
2022-09-23T17:22:11.074Z,11.78
2022-09-23T17:24:51.155Z,11.75
2022-09-23T17:27:39.090Z,11.72
2022-09-23T17:30:26.027Z,11.73
2022-09-23T17:33:06.495Z,11.67
2022-09-23T17:35:53.775Z,11.65
2022-09-23T17:38:40.213Z,11.64
2022-09-23T17:41:21.065Z,11.63
2022-09-23T17:44:01.736Z,11.51
2022-09-23T17:46:48.071Z,11.42
2022-09-23T17:49:29.964Z,11.46
2022-09-23T17:52:17.972Z,11.42
2022-09-23T17:55:06.014Z,11.45
2022-09-23T17:57:53.021Z,11.45
2022-09-23T18:00:40.164Z,11.48
2022-09-23T18:03:21.001Z,11.47
2022-09-23T18:06:08.384Z,11.57
2022-09-23T18:08:55.999Z,11.65
2022-09-23T18:11:39.158Z,11.58
2022-09-23T18:14:35.065Z,11.61
2022-09-23T18:17:22.973Z,11.57
2022-09-23T18:20:03.473Z,11.44
2022-09-23T18:22:50.114Z,11.41
2022-09-23T18:25:39.223Z,11.32
2022-09-23T18:28:25.977Z,11.30
2022-09-23T18:31:12.983Z,11.35
2022-09-23T18:34:02.005Z,11.32
2022-09-23T18:36:42.081Z,11.30
2022-09-23T18:39:28.994Z,11.32
2022-09-23T18:42:15.975Z,11.29
2022-09-23T18:44:57.205Z,11.27
2022-09-23T18:48:01.968Z,11.21
2022-09-23T18:50:43.999Z,11.18
2022-09-23T18:53:30.954Z,11.16
2022-09-23T18:56:13.421Z,11.10
2022-09-23T18:59:01.916Z,11.10
2022-09-23T19:01:50.128Z,11.04
2022-09-23T19:04:38.925Z,10.95
2022-09-23T19:07:25.917Z,10.96
2022-09-23T19:10:06.048Z,10.93
2022-09-23T19:12:52.936Z,10.95
2022-09-23T19:15:33.033Z,10.93
2022-09-23T19:18:19.889Z,10.84
2022-09-23T19:21:06.225Z,10.78
2022-09-23T19:24:02.914Z,10.82
2022-09-23T19:26:51.072Z,10.82
2022-09-23T19:29:31.911Z,10.84
2022-09-23T19:32:20.911Z,10.80
2022-09-23T19:35:01.133Z,10.81
2022-09-23T19:37:48.907Z,10.83
2022-09-23T19:40:31.860Z,10.81
2022-09-23T19:43:18.887Z,10.81
2022-09-23T19:46:02.969Z,10.73
2022-09-23T19:48:49.856Z,10.78
2022-09-23T19:51:36.874Z,10.68
2022-09-23T19:54:26.917Z,10.64
2022-09-23T19:57:06.978Z,10.60
2022-09-23T19:59:53.852Z,10.56
2022-09-23T20:02:34.069Z,10.56
2022-09-23T20:05:20.894Z,10.56
2022-09-23T20:08:02.066Z,10.60
2022-09-23T20:10:48.890Z,10.50
2022-09-23T20:13:35.862Z,10.49
2022-09-23T20:16:25.906Z,10.47
2022-09-23T20:19:07.046Z,10.49
2022-09-23T20:22:13.845Z,10.48
2022-09-23T20:24:53.932Z,10.42
2022-09-23T20:27:41.834Z,10.37
2022-09-23T20:30:21.965Z,10.38
2022-09-23T20:33:08.814Z,10.36
2022-09-23T20:35:48.893Z,10.39
2022-09-23T20:38:35.805Z,10.46
2022-09-23T20:41:22.760Z,10.49
2022-09-23T20:44:13.024Z,10.54
2022-09-23T20:47:00.848Z,10.59
2022-09-23T20:49:45.087Z,10.65
2022-09-23T20:52:31.829Z,10.69
2022-09-23T20:55:12.174Z,10.74
2022-09-23T20:58:01.806Z,10.74
2022-09-23T21:00:44.491Z,10.77
2022-09-23T21:03:32.806Z,10.81
2022-09-23T21:06:15.422Z,10.80
2022-09-23T21:09:01.779Z,10.80
2022-09-23T21:11:48.771Z,10.83
2022-09-23T21:14:28.897Z,10.86
2022-09-23T21:17:15.770Z,10.83
2022-09-23T21:20:02.766Z,10.79
2022-09-23T21:22:43.205Z,10.76
2022-09-23T21:25:30.715Z,10.81
2022-09-23T21:28:18.514Z,10.74
2022-09-23T21:31:00.106Z,10.70
2022-09-23T21:33:46.871Z,10.69
2022-09-23T21:36:27.710Z,10.74
2022-09-23T21:39:10.448Z,10.71
2022-09-23T21:41:57.738Z,10.69
2022-09-23T21:44:38.055Z,10.69
2022-09-23T21:47:24.724Z,10.65
2022-09-23T21:50:05.704Z,10.62
2022-09-23T21:52:52.669Z,10.57
2022-09-23T21:55:39.891Z,10.53
2022-09-23T21:58:20.719Z,10.52
2022-09-23T22:01:08.795Z,10.48
2022-09-23T22:03:49.892Z,10.44
2022-09-23T22:06:36.717Z,10.47
2022-09-23T22:09:25.767Z,10.38
2022-09-23T22:12:14.669Z,10.32
2022-09-23T22:14:54.801Z,10.26
2022-09-23T22:17:41.670Z,10.18
2022-09-23T22:20:28.671Z,10.23
2022-09-23T22:23:15.722Z,10.18
2022-09-23T22:25:59.430Z,10.10
2022-09-23T22:29:06.668Z,10.13
2022-09-23T22:32:11.689Z,10.16
2022-09-23T22:34:52.823Z,10.11
2022-09-23T22:37:45.673Z,10.14
2022-09-23T22:40:32.694Z,10.12
2022-09-23T22:43:19.645Z,10.16
2022-09-23T22:46:07.701Z,10.10
2022-09-23T22:48:54.633Z,10.05
2022-09-23T22:51:41.658Z,10.01
2022-09-23T22:54:22.248Z,10.03
2022-09-23T22:57:11.635Z,10.00
2022-09-23T22:59:59.634Z,9.96
2022-09-23T23:02:40.343Z,9.92
2022-09-23T23:05:26.615Z,9.95
2022-09-23T23:08:13.612Z,9.88
2022-09-23T23:10:55.026Z,9.86
2022-09-23T23:13:41.620Z,9.80
2022-09-23T23:16:25.309Z,9.74
2022-09-23T23:19:16.602Z,9.69
2022-09-23T23:22:04.602Z,9.67
2022-09-23T23:24:51.634Z,9.60
2022-09-23T23:27:38.616Z,9.50
2022-09-23T23:30:18.945Z,9.50
2022-09-23T23:33:05.590Z,9.46
2022-09-23T23:35:57.602Z,9.36
2022-09-23T23:38:38.040Z,9.32
2022-09-23T23:41:28.580Z,9.28
2022-09-23T23:44:08.778Z,9.20
2022-09-23T23:46:55.624Z,9.20
2022-09-23T23:49:35.651Z,9.11
2022-09-23T23:52:22.543Z,9.11
2022-09-23T23:55:02.968Z,9.07
2022-09-23T23:57:49.577Z,9.07
